Time;durP1;ratioP1;P1;durP2;ratioP2;P2;SDS_P1;SDS_P2;PMS_P1;PMS_P2;Temp;Humidity;BMP_temperature;BMP_pressure;BME280_temperature;BME280_humidity;BME280_pressure;Samples;Min_cycle;Max_cycle;Signal;HPM_P1;HPM_P2
2022/05/02 00:00:33;;;;;;;19.23;17.17;;;;;;;8.74;66.71;102089.31;5006788;28;20338;-67
2022/05/02 00:02:59;;;;;;;18.02;15.38;;;;;;;8.78;66.48;102095.16;5006473;28;20072;-66
2022/05/02 00:05:25;;;;;;;17.65;15.65;;;;;;;8.75;66.93;102084.97;5006162;28;20498;-67
2022/05/02 00:07:51;;;;;;;17.83;15.73;;;;;;;8.65;66.77;102084.59;5006607;28;20525;-69
2022/05/02 00:10:17;;;;;;;17.83;15.60;;;;;;;8.67;66.82;102087.13;5005266;28;20052;-67
2022/05/02 00:12:42;;;;;;;19.52;16.42;;;;;;;8.51;67.17;102082.78;5008628;28;20048;-66
2022/05/02 00:15:08;;;;;;;20.85;15.23;;;;;;;8.61;67.12;102087.47;5015632;28;20030;-67
2022/05/02 00:20:18;;;;;;;17.98;14.88;;;;;;;8.52;67.46;102089.59;5010608;28;20045;-67
2022/05/02 00:22:44;;;;;;;17.00;14.20;;;;;;;8.51;67.69;102077.59;5010541;28;20029;-67
2022/05/02 00:25:11;;;;;;;16.55;14.80;;;;;;;8.46;67.82;102079.59;5009072;28;20046;-66
2022/05/02 00:27:40;;;;;;;18.13;14.55;;;;;;;8.41;68.50;102067.81;5010214;28;20488;-69
2022/05/02 00:30:08;;;;;;;16.52;13.75;;;;;;;8.39;68.60;102073.06;5009946;28;20038;-66
2022/05/02 00:32:33;;;;;;;17.48;14.82;;;;;;;8.32;68.39;102063.94;5010196;28;20026;-67
2022/05/02 00:34:58;;;;;;;17.45;14.63;;;;;;;8.35;68.26;102065.53;5009916;28;20105;-69
2022/05/02 00:37:24;;;;;;;17.20;14.63;;;;;;;8.26;69.05;102066.84;5009265;28;20394;-67
2022/05/02 00:39:50;;;;;;;17.15;14.63;;;;;;;8.20;68.57;102051.63;5008061;28;20117;-66
2022/05/02 00:42:15;;;;;;;16.25;14.55;;;;;;;8.12;68.58;102053.78;5009492;28;20025;-68
2022/05/02 00:44:44;;;;;;;16.55;14.82;;;;;;;8.12;68.99;102064.13;5009916;28;20026;-66
2022/05/02 00:47:10;;;;;;;18.33;14.68;;;;;;;8.08;69.49;102065.19;5009204;28;20072;-68
2022/05/02 00:49:38;;;;;;;17.80;13.82;;;;;;;7.99;69.47;102059.59;5010343;28;20044;-66
2022/05/02 00:52:05;;;;;;;16.80;13.93;;;;;;;8.02;69.05;102062.94;5007625;28;20486;-70
2022/05/02 00:54:31;;;;;;;16.75;14.90;;;;;;;7.95;68.96;102052.91;5009035;28;20034;-67
2022/05/02 00:56:58;;;;;;;16.42;14.25;;;;;;;7.91;69.05;102046.25;5009929;28;20036;-67
2022/05/02 00:59:24;;;;;;;17.15;14.50;;;;;;;7.98;69.05;102063.09;5009513;28;20038;-67
2022/05/02 01:01:49;;;;;;;19.30;14.02;;;;;;;7.96;69.63;102054.56;5009793;28;20123;-68
2022/05/02 01:04:15;;;;;;;18.15;14.55;;;;;;;7.88;69.13;102043.81;5009118;28;20034;-68
2022/05/02 01:09:25;;;;;;;17.77;14.40;;;;;;;7.88;69.38;102045.56;5008459;28;20049;-69
2022/05/02 01:11:50;;;;;;;17.85;13.93;;;;;;;7.80;69.93;102053.69;5009574;28;20026;-66
2022/05/02 01:14:15;;;;;;;18.90;15.52;;;;;;;7.82;70.20;102051.88;5008743;28;20033;-67
2022/05/02 01:16:41;;;;;;;17.55;15.20;;;;;;;7.81;70.13;102055.38;5009035;28;20605;-70
2022/05/02 01:19:06;;;;;;;16.75;14.70;;;;;;;7.73;70.35;102052.31;5007648;28;20378;-66
2022/05/02 01:21:31;;;;;;;18.90;15.20;;;;;;;7.73;70.08;102058.31;5008826;28;20061;-68
2022/05/02 01:24:03;;;;;;;18.80;15.25;;;;;;;7.65;70.75;102041.53;5007735;28;20489;-70
2022/05/02 01:26:29;;;;;;;17.20;14.48;;;;;;;7.62;70.87;102044.25;5008615;28;20113;-66
2022/05/02 01:28:59;;;;;;;18.10;14.75;;;;;;;7.65;71.07;102051.88;5009168;28;20025;-70
2022/05/02 01:31:25;;;;;;;16.17;14.07;;;;;;;7.64;70.43;102050.22;5008513;28;20029;-66
2022/05/02 01:33:51;;;;;;;17.00;14.05;;;;;;;7.62;70.60;102049.44;5007525;28;20029;-66
2022/05/02 01:36:19;;;;;;;19.60;14.48;;;;;;;7.60;70.00;102051.25;5006989;28;20388;-66
2022/05/02 01:38:45;;;;;;;16.40;13.48;;;;;;;7.58;70.82;102041.03;5007745;28;20029;-66
2022/05/02 01:41:11;;;;;;;17.30;14.52;;;;;;;7.61;70.38;102052.94;5008200;28;20036;-67
2022/05/02 01:43:37;;;;;;;16.65;14.82;;;;;;;7.56;70.42;102045.41;5007092;28;20021;-69
2022/05/02 01:46:04;;;;;;;18.45;14.27;;;;;;;7.53;69.94;102044.75;5022512;28;20128;-67
2022/05/02 01:48:29;;;;;;;16.15;14.20;;;;;;;7.50;70.63;102042.28;5005282;28;20447;-66
2022/05/02 01:50:55;;;;;;;17.25;14.40;;;;;;;7.53;70.14;102048.16;5008915;28;20053;-66
2022/05/02 01:53:20;;;;;;;17.38;14.32;;;;;;;7.49;70.58;102043.22;5008187;28;20466;-67
2022/05/02 01:55:46;;;;;;;17.27;14.30;;;;;;;7.49;70.15;102032.88;5008267;28;20032;-66
2022/05/02 01:58:11;;;;;;;15.85;13.68;;;;;;;7.48;70.72;102031.22;5007039;28;20022;-67
2022/05/02 02:00:36;;;;;;;18.73;13.95;;;;;;;7.45;70.26;102033.06;5007549;28;20057;-67
2022/05/02 02:03:02;;;;;;;16.60;13.07;;;;;;;7.41;71.16;102031.53;5008656;28;20493;-66
2022/05/02 02:08:12;;;;;;;17.15;13.70;;;;;;;7.32;71.26;102020.81;5007905;28;20040;-66
2022/05/02 02:10:38;;;;;;;17.65;14.05;;;;;;;7.36;71.22;102033.50;5008262;28;20029;-70
2022/05/02 02:13:04;;;;;;;15.88;14.05;;;;;;;7.36;70.34;102032.66;4990682;28;20371;-68
2022/05/02 02:15:29;;;;;;;16.70;14.10;;;;;;;7.31;71.18;102030.28;5007791;28;20060;-68
2022/05/02 02:17:54;;;;;;;16.25;13.73;;;;;;;7.27;70.89;102023.59;5008360;28;20471;-66
2022/05/02 02:20:20;;;;;;;17.20;14.00;;;;;;;7.30;70.27;102031.22;5007464;28;20026;-66
2022/05/02 02:22:45;;;;;;;16.08;13.70;;;;;;;7.26;70.81;102032.25;5005236;28;20030;-70
2022/05/02 02:25:11;;;;;;;17.13;13.40;;;;;;;7.22;71.06;102025.56;5005812;28;20069;-67
2022/05/02 02:27:36;;;;;;;16.65;13.63;;;;;;;7.22;71.37;102028.16;5007747;28;20516;-68
2022/05/02 02:30:02;;;;;;;16.73;13.82;;;;;;;7.17;70.99;102028.38;5006583;28;20026;-67
2022/05/02 02:32:28;;;;;;;15.35;13.27;;;;;;;7.13;70.82;102021.69;5008243;28;20818;-66
2022/05/02 02:34:53;;;;;;;17.73;13.20;;;;;;;7.07;71.08;102008.25;5008179;28;20029;-67
2022/05/02 02:37:19;;;;;;;19.40;14.13;;;;;;;7.09;71.31;102014.16;5005600;28;20378;-66
2022/05/02 02:39:45;;;;;;;18.20;13.57;;;;;;;7.12;71.27;102027.78;5007765;28;20099;-66
2022/05/02 02:42:10;;;;;;;17.15;14.15;;;;;;;7.03;72.11;102022.22;5007483;28;20522;-68
2022/05/02 02:44:36;;;;;;;16.92;14.38;;;;;;;7.04;71.64;102022.13;5006369;28;20054;-66
2022/05/02 02:47:01;;;;;;;16.35;13.40;;;;;;;7.01;71.36;102021.44;5007615;28;20418;-69
2022/05/02 02:49:27;;;;;;;16.33;13.80;;;;;;;7.00;71.06;102012.06;5007690;28;20029;-66
2022/05/02 02:51:52;;;;;;;16.85;13.15;;;;;;;6.94;71.28;102020.91;5007781;28;20033;-66
2022/05/02 02:54:17;;;;;;;16.55;13.63;;;;;;;6.92;71.49;102007.22;5006801;28;20541;-66
2022/05/02 02:56:43;;;;;;;15.52;12.77;;;;;;;6.89;71.65;102003.06;5006467;28;20470;-67
2022/05/02 02:59:09;;;;;;;15.93;13.45;;;;;;;6.83;71.37;102008.53;5007034;28;20021;-66
2022/05/02 03:01:34;;;;;;;16.98;14.55;;;;;;;6.80;71.78;102000.91;5006603;28;20421;-66
2022/05/02 03:06:01;;;;;;;16.63;13.43;;;;;;;6.78;71.79;102005.31;5007375;28;20061;-67
2022/05/02 03:06:45;;;;;;;17.63;13.43;;;;;;;6.75;71.55;101999.47;5007122;28;20041;-66
2022/05/02 03:09:11;;;;;;;16.88;13.07;;;;;;;6.69;71.82;101994.59;5007194;28;20180;-66
2022/05/02 03:11:36;;;;;;;16.42;13.80;;;;;;;6.70;71.95;102001.41;5007730;28;20052;-66
2022/05/02 03:14:02;;;;;;;15.57;13.55;;;;;;;6.65;72.10;101999.03;5006159;28;20013;-65
2022/05/02 03:16:27;;;;;;;17.40;14.18;;;;;;;6.65;72.95;101999.03;5006916;28;20029;-67
2022/05/02 03:18:52;;;;;;;16.52;14.23;;;;;;;6.60;72.73;102003.59;5006736;28;20030;-67
2022/05/02 03:21:18;;;;;;;16.88;14.07;;;;;;;6.58;72.81;102002.81;5005556;28;20033;-66
2022/05/02 03:23:43;;;;;;;18.67;15.27;;;;;;;6.55;73.16;102002.97;5007350;28;20510;-69
2022/05/02 03:26:08;;;;;;;17.80;14.25;;;;;;;6.52;73.46;101993.63;5006795;28;20103;-66
2022/05/02 03:28:34;;;;;;;18.70;15.07;;;;;;;6.47;73.25;101994.72;5006898;28;20378;-67
2022/05/02 03:30:59;;;;;;;17.70;13.93;;;;;;;6.51;73.52;101991.13;5007024;28;20792;-71
2022/05/02 03:33:24;;;;;;;16.60;14.48;;;;;;;6.52;73.55;101995.34;5006068;28;20036;-66
2022/05/02 03:35:50;;;;;;;17.92;14.35;;;;;;;6.52;73.67;101993.63;5007185;28;20065;-67
2022/05/02 03:38:15;;;;;;;17.52;13.95;;;;;;;6.49;73.96;101992.94;5006231;28;20103;-68
2022/05/02 03:40:40;;;;;;;17.33;14.95;;;;;;;6.49;73.61;101998.09;5006673;28;20095;-66
2022/05/02 03:43:06;;;;;;;17.30;14.52;;;;;;;6.46;73.67;101998.22;5006652;28;20473;-66
2022/05/02 03:45:31;;;;;;;16.88;14.00;;;;;;;6.50;73.48;101999.75;5004531;28;20450;-67
2022/05/02 03:47:56;;;;;;;17.58;14.30;;;;;;;6.44;73.63;101994.88;5003386;28;20393;-67
2022/05/02 03:50:22;;;;;;;18.17;14.70;;;;;;;6.39;74.48;101990.78;4995652;28;20310;-66
2022/05/02 03:52:47;;;;;;;18.13;15.00;;;;;;;6.41;74.34;102000.16;5002898;28;20113;-66
2022/05/02 03:55:12;;;;;;;20.58;14.35;;;;;;;6.33;74.19;101998.78;5003417;28;20036;-66
2022/05/02 03:57:38;;;;;;;15.63;13.30;;;;;;;6.37;74.44;102000.31;5005629;28;20022;-66
2022/05/02 04:00:04;;;;;;;18.52;14.43;;;;;;;6.31;74.05;101995.44;5004998;28;20037;-67
2022/05/02 04:02:30;;;;;;;16.00;14.05;;;;;;;6.27;74.40;102000.81;5003755;28;20812;-66
2022/05/02 04:04:55;;;;;;;17.52;14.75;;;;;;;6.30;74.13;101998.91;5005429;28;20079;-66
2022/05/02 04:07:20;;;;;;;17.17;14.32;;;;;;;6.28;74.03;102000.72;5004653;28;20893;-67
2022/05/02 04:09:46;;;;;;;19.13;14.07;;;;;;;6.30;74.55;102004.06;5003174;28;20018;-66
2022/05/02 04:12:11;;;;;;;17.92;14.32;;;;;;;6.28;74.57;102002.47;5002337;28;20026;-66
2022/05/02 04:14:36;;;;;;;17.83;14.80;;;;;;;6.23;74.48;101994.94;5007842;28;20029;-66
2022/05/02 04:17:02;;;;;;;19.48;13.88;;;;;;;6.24;74.12;101999.19;5020730;28;20266;-67
2022/05/02 04:19:27;;;;;;;18.48;14.45;;;;;;;6.19;74.25;101990.81;5005052;28;20032;-70
2022/05/02 04:21:53;;;;;;;17.45;14.32;;;;;;;6.17;74.79;101997.78;5005751;28;20092;-66
2022/05/02 04:24:19;;;;;;;17.20;13.95;;;;;;;6.21;74.39;102004.47;5004817;28;20042;-67
2022/05/02 04:26:44;;;;;;;17.20;14.65;;;;;;;6.06;74.36;101989.69;4999886;28;20030;-67
2022/05/02 04:29:10;;;;;;;17.05;14.25;;;;;;;6.11;75.01;102003.22;5020108;28;20524;-66
2022/05/02 04:31:35;;;;;;;17.30;14.45;;;;;;;6.17;74.72;102002.94;5004700;28;20036;-66
2022/05/02 04:34:00;;;;;;;18.40;13.77;;;;;;;6.16;74.97;102003.84;5005041;28;20030;-67
2022/05/02 04:36:26;;;;;;;17.55;14.63;;;;;;;6.12;74.93;101994.56;5004380;28;20033;-66
2022/05/02 04:38:51;;;;;;;17.83;14.48;;;;;;;6.20;74.74;101995.09;5005423;28;20612;-69
2022/05/02 04:41:18;;;;;;;17.88;14.50;;;;;;;6.17;75.79;102008.09;5003780;28;20033;-69
2022/05/02 04:43:43;;;;;;;18.30;14.85;;;;;;;6.18;74.71;101999.44;5005078;28;20056;-67
2022/05/02 04:46:09;;;;;;;17.67;15.20;;;;;;;6.25;74.99;102002.59;5002600;28;20030;-66
2022/05/02 04:48:35;;;;;;;19.08;15.80;;;;;;;6.19;74.92;101995.97;5004835;28;20042;-67
2022/05/02 04:51:00;;;;;;;19.20;16.05;;;;;;;6.18;74.99;101996.88;5004406;28;20060;-68
2022/05/02 04:53:25;;;;;;;17.88;14.52;;;;;;;6.13;75.20;101985.94;5004011;28;20026;-66
2022/05/02 04:55:51;;;;;;;19.25;15.02;;;;;;;6.23;75.29;102007.81;5020177;28;20113;-66
2022/05/02 04:58:16;;;;;;;17.95;15.63;;;;;;;6.22;76.11;102000.16;5004595;28;20026;-68
2022/05/02 05:00:42;;;;;;;17.67;15.07;;;;;;;6.23;75.73;102002.66;5008231;28;20101;-66
2022/05/02 05:03:08;;;;;;;18.17;14.98;;;;;;;6.20;76.10;101997.66;5009098;28;20034;-71
2022/05/02 05:05:33;;;;;;;17.02;14.55;;;;;;;6.21;76.33;101995.94;5008356;28;20057;-66
2022/05/02 05:07:59;;;;;;;19.33;16.20;;;;;;;6.23;75.51;102002.66;5009566;28;20030;-66
2022/05/02 05:10:24;;;;;;;19.33;15.65;;;;;;;6.21;76.48;101994.19;5009404;28;20030;-66
2022/05/02 05:13:07;;;;;;;18.33;15.80;;;;;;;6.31;76.10;102010.91;5009622;28;20052;-66
2022/05/02 05:18:40;;;;;;;18.60;15.93;;;;;;;6.38;76.55;102007.16;5009076;28;20109;-68
2022/05/02 05:21:11;;;;;;;18.20;15.50;;;;;;;6.37;76.22;102018.34;5008164;28;20025;-66
2022/05/02 05:24:01;;;;;;;20.52;15.85;;;;;;;6.45;76.09;102007.69;5009533;28;20026;-67
2022/05/02 05:26:48;;;;;;;18.63;15.98;;;;;;;6.52;75.93;102010.81;5008448;28;20116;-69
2022/05/02 05:29:34;;;;;;;20.63;15.38;;;;;;;6.53;75.70;102009.91;5008857;28;20045;-67
2022/05/02 05:32:08;;;;;;;20.23;16.30;;;;;;;6.63;76.37;102016.31;5009469;28;20022;-66
2022/05/02 05:34:44;;;;;;;19.88;16.02;;;;;;;6.67;75.52;102002.41;4991428;28;20042;-67
2022/05/02 05:37:21;;;;;;;20.38;16.23;;;;;;;6.72;75.28;102005.59;5007690;28;20025;-66
2022/05/02 05:40:10;;;;;;;20.38;15.82;;;;;;;6.75;75.50;102005.44;5007920;28;20589;-67
2022/05/02 05:42:45;;;;;;;20.23;16.05;;;;;;;6.79;75.67;102006.97;5007762;28;20025;-67
2022/05/02 05:45:24;;;;;;;21.33;16.42;;;;;;;6.85;75.61;102011.84;5004780;28;20109;-67
2022/05/02 05:48:11;;;;;;;20.83;16.92;;;;;;;6.85;74.83;102005.84;5006380;28;20064;-69
2022/05/02 05:50:45;;;;;;;20.88;15.60;;;;;;;6.86;74.66;101981.75;5008524;28;20037;-67
2022/05/02 05:53:40;;;;;;;20.38;16.60;;;;;;;7.06;75.25;102004.00;5007594;28;20537;-68
2022/05/02 05:56:23;;;;;;;20.00;16.63;;;;;;;7.12;74.63;102008.88;5022502;28;20310;-67
2022/05/02 05:59:10;;;;;;;19.67;17.25;;;;;;;7.20;74.66;102011.91;5008366;28;20044;-68
2022/05/02 06:01:55;;;;;;;20.83;17.20;;;;;;;7.30;74.41;102013.16;5008219;28;20478;-71
2022/05/02 06:04:22;;;;;;;20.02;17.70;;;;;;;7.37;74.98;102014.50;5008949;28;20026;-67
2022/05/02 06:06:47;;;;;;;20.35;17.70;;;;;;;7.43;74.21;102006.47;5008304;28;20034;-70
2022/05/02 06:09:14;;;;;;;20.27;16.98;;;;;;;7.55;74.18;102006.75;5007712;28;20528;-69
2022/05/02 06:11:40;;;;;;;19.83;17.52;;;;;;;7.57;74.43;102004.94;5002894;28;20467;-73
2022/05/02 06:14:06;;;;;;;20.73;17.63;;;;;;;7.68;72.98;102012.97;5003645;28;20022;-67
2022/05/02 06:19:28;;;;;;;21.20;16.77;;;;;;;7.83;73.43;102011.38;5007892;28;20145;-70
2022/05/02 06:21:55;;;;;;;19.42;17.27;;;;;;;7.91;74.50;102007.50;5000352;28;20030;-71
2022/05/02 06:24:31;;;;;;;20.05;17.27;;;;;;;8.01;73.78;102009.59;5004748;28;20053;-70
2022/05/02 06:26:58;;;;;;;21.50;17.88;;;;;;;8.11;73.48;102000.44;5007341;28;20037;-71
2022/05/02 06:29:24;;;;;;;20.92;18.50;;;;;;;8.18;73.48;102001.78;5007663;28;20033;-68
2022/05/02 06:31:55;;;;;;;20.33;18.20;;;;;;;8.31;73.60;102018.31;5008264;28;20490;-67
2022/05/02 06:34:25;;;;;;;22.52;18.48;;;;;;;8.40;73.74;102009.28;5007282;28;20061;-69
2022/05/02 06:36:57;;;;;;;21.45;18.48;;;;;;;8.49;73.20;102012.22;5005965;28;20034;-67
2022/05/02 06:39:31;;;;;;;21.35;18.17;;;;;;;8.60;73.31;102009.06;5007257;28;20030;-69
2022/05/02 06:42:20;;;;;;;69.07;21.10;;;;;;;8.72;72.96;102013.56;5005608;28;20030;-72
2022/05/02 06:45:14;;;;;;;21.33;17.98;;;;;;;8.85;71.72;102012.88;4987264;28;20403;-70
2022/05/02 06:47:55;;;;;;;20.92;17.98;;;;;;;8.97;71.35;102012.19;5002782;28;20096;-67
2022/05/02 06:50:24;;;;;;;20.63;17.90;;;;;;;9.04;71.20;102019.50;5006462;28;20048;-68
2022/05/02 06:53:08;;;;;;;20.48;18.38;;;;;;;9.16;70.46;102017.16;5006988;28;20030;-68
2022/05/02 06:55:34;;;;;;;20.48;17.67;;;;;;;9.28;69.93;102016.47;5007552;28;20052;-67
2022/05/02 06:58:33;;;;;;;18.60;16.67;;;;;;;9.41;69.73;102017.44;5006772;28;20026;-69
2022/05/02 07:01:11;;;;;;;20.73;16.85;;;;;;;9.51;68.75;102007.38;5007514;28;20026;-67
2022/05/02 07:03:52;;;;;;;20.15;17.52;;;;;;;9.63;69.36;102016.19;4993920;28;20034;-67
2022/05/02 07:06:45;;;;;;;20.83;18.65;;;;;;;9.67;69.46;102002.13;4991543;28;20021;-67
2022/05/02 07:09:16;;;;;;;20.55;18.33;;;;;;;9.79;67.58;102016.94;5006059;28;20030;-68
2022/05/02 07:11:58;;;;;;;21.95;19.55;;;;;;;9.92;69.55;102007.53;5006730;28;20033;-67
2022/05/02 07:14:40;;;;;;;20.65;18.45;;;;;;;10.01;68.28;102006.13;5006566;28;20034;-67
2022/05/02 07:17:22;;;;;;;23.05;18.98;;;;;;;10.09;67.69;102004.75;5006639;28;20053;-68
2022/05/02 07:19:59;;;;;;;23.02;19.38;;;;;;;10.15;67.69;102005.28;5005882;28;20476;-71
2022/05/02 07:22:34;;;;;;;20.55;18.02;;;;;;;10.27;68.07;102002.00;5005447;28;20034;-67
2022/05/02 07:25:09;;;;;;;20.90;17.80;;;;;;;10.43;66.17;102002.69;5007012;28;20070;-67
2022/05/02 07:27:41;;;;;;;20.40;18.30;;;;;;;10.53;65.96;102002.97;5005405;28;20033;-70
2022/05/02 07:30:07;;;;;;;22.52;18.73;;;;;;;10.62;65.97;102002.41;5005345;28;20397;-69
2022/05/02 07:32:33;;;;;;;21.65;19.38;;;;;;;10.68;63.70;102006.38;5014032;28;20494;-69
2022/05/02 07:34:59;;;;;;;21.42;18.48;;;;;;;10.81;63.46;102012.44;5023114;28;20030;-68
2022/05/02 07:37:25;;;;;;;18.23;16.42;;;;;;;10.93;62.29;102013.41;5011884;28;20064;-67
2022/05/02 07:39:52;;;;;;;18.02;14.73;;;;;;;10.99;62.37;102000.88;5006768;28;20065;-68
2022/05/02 07:42:20;;;;;;;17.00;15.27;;;;;;;11.06;61.49;102002.13;5005676;28;20552;-67
2022/05/02 07:44:48;;;;;;;17.75;15.85;;;;;;;11.21;62.71;102009.88;4997898;28;20400;-68
2022/05/02 07:47:15;;;;;;;14.25;12.80;;;;;;;11.37;59.72;102015.72;5005438;28;20430;-67
2022/05/02 07:49:45;;;;;;;16.02;13.07;;;;;;;11.42;58.12;102013.66;5006944;28;20466;-70
2022/05/02 07:52:15;;;;;;;17.88;14.68;;;;;;;11.50;58.21;102010.56;5004489;28;20533;-69
2022/05/02 07:54:45;;;;;;;14.40;13.00;;;;;;;11.51;58.53;101997.44;5006363;28;20029;-68
2022/05/02 07:57:13;;;;;;;13.80;12.20;;;;;;;11.68;58.62;102010.16;5006183;28;20109;-68
2022/05/02 07:59:40;;;;;;;14.55;13.07;;;;;;;11.80;57.23;102015.44;5002157;28;20022;-74
2022/05/02 08:02:06;;;;;;;14.57;12.88;;;;;;;11.85;56.26;102005.59;5009376;28;20090;-67
2022/05/02 08:04:32;;;;;;;15.75;12.50;;;;;;;11.98;57.69;102011.63;5004144;28;20109;-67
2022/05/02 08:07:11;;;;;;;13.55;11.60;;;;;;;12.12;57.00;102021.94;5005502;28;20104;-67
2022/05/02 08:09:55;;;;;;;14.05;11.90;;;;;;;12.20;57.39;102017.00;5003306;28;20029;-67
2022/05/02 08:12:33;;;;;;;13.35;11.95;;;;;;;12.26;58.25;102001.91;5003256;28;20029;-67
2022/05/02 08:15:02;;;;;;;13.07;11.82;;;;;;;12.37;56.64;102004.59;5021457;28;20490;-68
2022/05/02 08:17:27;;;;;;;14.45;12.57;;;;;;;12.47;55.52;102008.22;5005601;28;20029;-67
2022/05/02 08:20:11;;;;;;;13.82;11.63;;;;;;;12.58;56.28;102010.91;5004903;28;20488;-68
2022/05/02 08:28:43;;;;;;;13.15;11.75;;;;;;;12.77;54.49;102000.81;5005102;28;20113;-69
2022/05/02 08:31:18;;;;;;;14.10;12.60;;;;;;;12.88;53.58;102012.25;4990474;28;20029;-70
2022/05/02 08:33:55;;;;;;;14.10;12.68;;;;;;;12.74;53.07;102001.06;5008589;28;20156;-71
2022/05/02 08:36:36;;;;;;;17.67;14.38;;;;;;;12.96;54.04;102009.91;5008459;28;20033;-67
2022/05/02 08:39:05;;;;;;;15.98;14.25;;;;;;;12.95;54.10;101997.81;5009425;28;20036;-71
2022/05/02 08:41:31;;;;;;;15.40;13.82;;;;;;;13.08;53.23;101997.78;5008041;28;20030;-72
2022/05/02 08:44:16;;;;;;;17.13;13.30;;;;;;;13.15;52.63;102001.59;5008050;28;20537;-68
2022/05/02 08:47:04;;;;;;;15.48;13.88;;;;;;;13.24;54.35;102012.19;5009748;28;20112;-66
2022/05/02 08:49:54;;;;;;;17.55;14.75;;;;;;;13.27;54.89;101993.72;5006044;28;20030;-69
2022/05/02 08:52:34;;;;;;;15.80;14.18;;;;;;;13.33;51.08;102007.25;5009121;28;20034;-66
2022/05/02 08:55:30;;;;;;;15.63;13.32;;;;;;;13.35;51.20;102005.34;5009794;28;20103;-69
2022/05/02 08:58:20;;;;;;;14.50;13.02;;;;;;;13.49;53.49;102005.16;5004295;28;20041;-69
2022/05/02 09:01:21;;;;;;;14.90;13.32;;;;;;;13.49;52.10;101999.94;5005901;28;20068;-66
2022/05/02 09:04:17;;;;;;;15.43;12.50;;;;;;;13.63;51.80;101999.72;5009128;28;20038;-65
2022/05/02 09:07:03;;;;;;;15.35;13.23;;;;;;;13.69;50.60;102001.88;5009358;28;20159;-64
2022/05/02 09:09:48;;;;;;;14.05;12.65;;;;;;;13.81;50.36;102000.09;5010077;28;20026;-64
2022/05/02 09:12:17;;;;;;;14.82;12.55;;;;;;;13.81;49.09;102000.09;5007782;28;20052;-66
2022/05/02 09:15:12;;;;;;;13.27;11.80;;;;;;;13.94;50.25;101992.19;5012013;28;20056;-68
2022/05/02 09:18:13;;;;;;;13.30;12.00;;;;;;;14.03;49.89;101996.66;5014887;28;20076;-65
2022/05/02 09:20:58;;;;;;;16.85;12.75;;;;;;;14.19;51.17;101996.31;5010104;28;20045;-64
2022/05/02 09:23:30;;;;;;;13.02;11.73;;;;;;;14.18;48.25;101999.88;4996899;28;20030;-65
2022/05/02 09:25:58;;;;;;;13.38;11.95;;;;;;;14.14;47.23;101994.06;5009810;28;20126;-66
2022/05/02 09:28:45;;;;;;;15.38;12.65;;;;;;;14.25;48.53;101996.66;5009845;28;20064;-69
2022/05/02 09:31:28;;;;;;;32.25;18.25;;;;;;;14.46;47.51;101977.66;5009109;28;20237;-66
2022/05/02 09:34:17;;;;;;;23.70;14.75;;;;;;;14.51;46.82;101967.72;5009357;28;20520;-69
2022/05/02 09:37:02;;;;;;;12.70;11.32;;;;;;;14.66;47.20;101984.75;4989087;28;20093;-69
2022/05/02 09:39:37;;;;;;;40.13;21.08;;;;;;;14.66;48.91;101992.56;4989253;28;20038;-66
2022/05/02 09:42:09;;;;;;;15.43;11.85;;;;;;;14.49;47.68;101987.88;5000212;28;20034;-67
2022/05/02 09:51:20;;;;;;;13.55;10.90;;;;;;;14.61;46.70;101989.50;5002375;28;20080;-67
2022/05/02 09:53:55;;;;;;;14.55;11.73;;;;;;;14.34;46.51;101980.28;5008948;28;20022;-67
2022/05/02 09:56:39;;;;;;;18.48;12.80;;;;;;;14.19;45.11;101984.09;5005545;28;20409;-67
2022/05/02 09:59:23;;;;;;;22.50;13.68;;;;;;;14.40;47.55;101972.94;5006406;28;20034;-67
2022/05/02 10:01:59;;;;;;;13.10;11.40;;;;;;;14.32;46.31;101966.50;5006034;28;20061;-67
2022/05/02 10:05:03;;;;;;;12.38;11.02;;;;;;;14.38;47.19;101969.59;5001981;28;20527;-69
2022/05/02 10:07:29;;;;;;;12.30;10.27;;;;;;;14.39;45.21;101966.03;5007906;28;20034;-66
2022/05/02 10:10:09;;;;;;;11.38;10.18;;;;;;;14.51;46.14;101965.09;5008301;28;20500;-66
2022/05/02 10:12:41;;;;;;;12.82;11.18;;;;;;;14.52;45.52;101969.38;5002473;28;20073;-68
2022/05/02 10:15:18;;;;;;;13.55;11.70;;;;;;;14.71;46.08;101966.91;5001311;28;20417;-66
2022/05/02 10:17:52;;;;;;;13.52;10.93;;;;;;;14.88;46.44;101963.78;5018127;28;20037;-69
2022/05/02 10:20:20;;;;;;;12.43;10.27;;;;;;;15.00;48.20;101955.88;5007407;28;20036;-66
2022/05/02 10:22:57;;;;;;;12.00;10.77;;;;;;;15.20;46.83;101968.16;5005639;28;20037;-67
2022/05/02 10:25:43;;;;;;;13.95;11.95;;;;;;;15.17;45.77;101968.38;5001295;28;20208;-66
2022/05/02 10:28:30;;;;;;;12.07;10.43;;;;;;;15.20;44.88;101968.16;5006423;28;20025;-69
2022/05/02 10:31:04;;;;;;;12.00;10.70;;;;;;;15.29;47.42;101956.91;5003066;28;20116;-66
2022/05/02 10:33:43;;;;;;;12.77;11.48;;;;;;;15.12;42.23;101957.47;4994992;28;20080;-68
2022/05/02 10:36:10;;;;;;;12.75;11.45;;;;;;;15.36;45.77;101950.19;5006652;28;20053;-66
2022/05/02 10:38:45;;;;;;;11.63;10.40;;;;;;;15.54;45.98;101960.06;5002846;28;20022;-66
2022/05/02 10:41:19;;;;;;;12.32;11.02;;;;;;;15.65;44.05;101952.16;5005734;28;20405;-67
2022/05/02 10:43:52;;;;;;;13.52;11.50;;;;;;;15.31;42.42;101939.31;4989955;28;20120;-67
2022/05/02 10:46:21;;;;;;;13.05;11.75;;;;;;;15.44;44.05;101948.75;5004638;28;20057;-67
2022/05/02 10:49:12;;;;;;;13.02;10.68;;;;;;;15.55;45.38;101946.88;5007571;28;20037;-66
2022/05/02 10:51:37;;;;;;;13.02;11.63;;;;;;;15.46;42.59;101941.59;5007191;28;20029;-67
2022/05/02 10:54:27;;;;;;;13.05;11.63;;;;;;;15.38;41.82;101945.69;5006396;28;20034;-66
2022/05/02 10:56:58;;;;;;;13.88;12.48;;;;;;;15.65;43.75;101941.72;5006136;28;20152;-67
2022/05/02 10:59:30;;;;;;;13.68;12.27;;;;;;;15.86;43.14;101939.88;5006443;28;20036;-67
2022/05/02 11:02:13;;;;;;;13.35;11.95;;;;;;;15.99;44.19;101933.56;5007555;28;20044;-67
2022/05/02 11:04:57;;;;;;;13.73;12.25;;;;;;;15.85;41.15;101933.00;4995775;28;20042;-68
2022/05/02 11:07:28;;;;;;;13.10;11.70;;;;;;;15.84;41.53;101930.53;5005371;28;20345;-67
2022/05/02 11:10:02;;;;;;;13.63;12.23;;;;;;;16.02;41.03;101928.09;5007339;28;20057;-66
2022/05/02 11:12:35;;;;;;;13.35;12.05;;;;;;;16.07;41.85;101920.66;5004947;28;20025;-66
2022/05/02 11:15:10;;;;;;;13.70;12.30;;;;;;;16.07;40.08;101921.50;5003712;28;20367;-66
2022/05/02 11:17:38;;;;;;;14.25;11.90;;;;;;;16.30;41.11;101916.84;4997951;28;20026;-66
2022/05/02 11:22:57;;;;;;;14.55;13.15;;;;;;;16.26;41.93;101910.22;5007453;28;20063;-66
2022/05/02 11:25:27;;;;;;;13.68;12.27;;;;;;;16.29;40.88;101914.38;5006576;28;20049;-67
2022/05/02 11:28:09;;;;;;;13.70;12.30;;;;;;;16.39;42.88;101916.03;4991521;28;20086;-67
2022/05/02 11:30:45;;;;;;;14.30;12.25;;;;;;;16.38;42.10;101903.06;5006270;28;20522;-66
2022/05/02 11:33:16;;;;;;;13.40;12.00;;;;;;;16.72;40.73;101901.72;5005611;28;20032;-69
2022/05/02 11:35:48;;;;;;;14.13;12.73;;;;;;;16.65;39.86;101910.25;5002584;28;20021;-66
2022/05/02 11:38:49;;;;;;;13.75;12.13;;;;;;;16.86;39.78;101908.34;5002801;28;20033;-70
2022/05/02 11:41:21;;;;;;;15.48;12.52;;;;;;;16.82;39.83;101911.38;5005209;28;20029;-70
2022/05/02 11:43:48;;;;;;;13.20;11.63;;;;;;;16.79;39.01;101907.22;5004522;28;20026;-67
2022/05/02 11:46:22;;;;;;;13.13;11.70;;;;;;;16.87;41.13;101899.53;5004865;28;20096;-66
2022/05/02 11:49:00;;;;;;;13.13;11.82;;;;;;;16.98;39.62;101902.00;5005743;28;20041;-66
2022/05/02 11:51:46;;;;;;;13.27;11.95;;;;;;;17.27;40.53;101901.09;5005374;28;20053;-69
2022/05/02 11:54:32;;;;;;;13.10;11.02;;;;;;;17.31;39.54;101896.38;5003549;28;20034;-67
2022/05/02 11:57:18;;;;;;;13.32;10.75;;;;;;;17.41;38.19;101903.25;4993379;28;20318;-67
2022/05/02 12:00:07;;;;;;;13.27;11.10;;;;;;;17.41;39.22;101898.00;5005584;28;20064;-67
2022/05/02 12:02:40;;;;;;;12.20;10.90;;;;;;;17.58;37.97;101899.03;5015717;28;20056;-66
2022/05/02 12:05:17;;;;;;;12.13;10.18;;;;;;;17.57;38.93;101899.19;5015219;28;20394;-69